createdAt,value
2022-07-28T00:00:00.000Z,0.0
2022-07-28T00:02:00.000Z,0.0
2022-07-28T00:04:00.000Z,0.0
2022-07-28T00:06:00.000Z,0.0
2022-07-28T00:08:00.000Z,0.0
2022-07-28T00:10:00.000Z,0.0
2022-07-28T00:12:00.000Z,0.0
2022-07-28T00:14:00.000Z,0.0
2022-07-28T00:16:00.000Z,0.0
2022-07-28T00:18:00.000Z,0.0
2022-07-28T00:20:00.000Z,0.0
2022-07-28T00:22:00.000Z,0.0
2022-07-28T00:24:00.000Z,0.0
2022-07-28T00:26:00.000Z,0.0
2022-07-28T00:28:00.000Z,0.0
2022-07-28T00:30:00.000Z,0.0
2022-07-28T00:32:00.000Z,0.0
2022-07-28T00:34:00.000Z,0.0
2022-07-28T00:36:00.000Z,0.0
2022-07-28T00:38:00.000Z,0.0
2022-07-28T00:40:00.000Z,0.0
2022-07-28T00:42:00.000Z,0.0
2022-07-28T00:44:00.000Z,0.0
2022-07-28T00:46:00.000Z,0.0
2022-07-28T00:48:00.000Z,0.0
2022-07-28T00:50:00.000Z,0.0
2022-07-28T00:52:00.000Z,0.0
2022-07-28T00:54:00.000Z,0.0
2022-07-28T00:56:00.000Z,0.0
2022-07-28T00:58:00.000Z,0.0
2022-07-28T01:00:00.000Z,0.0
2022-07-28T01:02:00.000Z,0.0
2022-07-28T01:04:00.000Z,0.0
2022-07-28T01:06:00.000Z,0.0
2022-07-28T01:08:00.000Z,0.0
2022-07-28T01:10:00.000Z,0.0
2022-07-28T01:12:00.000Z,0.0
2022-07-28T01:14:00.000Z,0.0
2022-07-28T01:16:00.000Z,0.0
2022-07-28T01:18:00.000Z,0.0
2022-07-28T01:20:00.000Z,0.0
2022-07-28T01:22:00.000Z,0.0
2022-07-28T01:24:00.000Z,0.0
2022-07-28T01:26:00.000Z,0.0
2022-07-28T01:28:00.000Z,0.0
2022-07-28T01:30:00.000Z,0.0
2022-07-28T01:32:00.000Z,0.0
2022-07-28T01:34:00.000Z,0.0
2022-07-28T01:36:00.000Z,0.0
2022-07-28T01:38:00.000Z,0.0
2022-07-28T01:40:00.000Z,0.0
2022-07-28T01:42:00.000Z,0.0
2022-07-28T01:44:00.000Z,0.0
2022-07-28T01:46:00.000Z,0.0
2022-07-28T01:48:00.000Z,0.0
2022-07-28T01:50:00.000Z,0.0
2022-07-28T01:52:00.000Z,0.0
2022-07-28T01:54:00.000Z,0.0
2022-07-28T01:56:00.000Z,0.0
2022-07-28T01:58:00.000Z,0.0
2022-07-28T02:00:00.000Z,0.0
2022-07-28T02:02:00.000Z,0.0
2022-07-28T02:04:00.000Z,0.0
2022-07-28T02:06:00.000Z,0.0
2022-07-28T02:08:00.000Z,0.0
2022-07-28T02:10:00.000Z,0.0
2022-07-28T02:12:00.000Z,0.0
2022-07-28T02:14:00.000Z,0.0
2022-07-28T02:16:00.000Z,0.0
2022-07-28T02:18:00.000Z,0.0
2022-07-28T02:20:00.000Z,0.0
2022-07-28T02:22:00.000Z,0.0
2022-07-28T02:24:00.000Z,0.0
2022-07-28T02:26:00.000Z,0.0
2022-07-28T02:28:00.000Z,0.0
2022-07-28T02:30:00.000Z,0.0
2022-07-28T02:32:00.000Z,0.0
2022-07-28T02:34:00.000Z,0.0
2022-07-28T02:36:00.000Z,0.0
2022-07-28T02:38:00.000Z,0.0
2022-07-28T02:40:00.000Z,0.0
2022-07-28T02:42:00.000Z,0.0
2022-07-28T02:44:00.000Z,0.0
2022-07-28T02:46:00.000Z,0.0
2022-07-28T02:48:00.000Z,0.0
2022-07-28T02:50:00.000Z,0.0
2022-07-28T02:52:00.000Z,0.0
2022-07-28T02:54:00.000Z,0.0
2022-07-28T02:56:00.000Z,0.0
2022-07-28T02:58:00.000Z,0.0
2022-07-28T03:00:00.000Z,0.0
2022-07-28T03:02:00.000Z,0.0
2022-07-28T03:04:00.000Z,0.0
2022-07-28T03:06:00.000Z,0.31
2022-07-28T03:08:00.000Z,0.47
2022-07-28T03:10:00.000Z,0.71
2022-07-28T03:12:00.000Z,0.86
2022-07-28T03:14:00.000Z,1.02
2022-07-28T03:16:00.000Z,1.42
2022-07-28T03:18:00.000Z,1.73
2022-07-28T03:20:00.000Z,1.89
2022-07-28T03:22:00.000Z,2.21
2022-07-28T03:24:00.000Z,2.6
2022-07-28T03:26:00.000Z,3.0
2022-07-28T03:28:00.000Z,3.39
2022-07-28T03:30:00.000Z,3.95
2022-07-28T03:32:00.000Z,4.42
2022-07-28T03:34:00.000Z,4.89
2022-07-28T03:36:00.000Z,5.45
2022-07-28T03:38:00.000Z,6.08
2022-07-28T03:40:00.000Z,6.95
2022-07-28T03:42:00.000Z,7.9
2022-07-28T03:44:00.000Z,9.0
2022-07-28T03:46:00.000Z,9.71
2022-07-28T03:48:00.000Z,11.06
2022-07-28T03:50:00.000Z,12.4
2022-07-28T03:52:00.000Z,13.9
2022-07-28T03:54:00.000Z,15.48
2022-07-28T03:56:00.000Z,17.14
2022-07-28T03:58:00.000Z,18.8
2022-07-28T04:00:00.000Z,20.46
2022-07-28T04:02:00.000Z,22.04
2022-07-28T04:04:00.000Z,23.62
2022-07-28T04:06:00.000Z,25.59
2022-07-28T04:08:00.000Z,27.96
2022-07-28T04:10:00.000Z,29.07
2022-07-28T04:12:00.000Z,31.28
2022-07-28T04:14:00.000Z,33.33
2022-07-28T04:16:00.000Z,35.62
2022-07-28T04:18:00.000Z,37.76
2022-07-28T04:20:00.000Z,39.34
2022-07-28T04:22:00.000Z,40.44
2022-07-28T04:24:00.000Z,41.23
2022-07-28T04:26:00.000Z,42.58
2022-07-28T04:28:00.000Z,43.45
2022-07-28T04:30:00.000Z,44.39
2022-07-28T04:32:00.000Z,45.03
2022-07-28T04:34:00.000Z,45.89
2022-07-28T04:36:00.000Z,46.05
2022-07-28T04:38:00.000Z,47.08
2022-07-28T04:40:00.000Z,47.63
2022-07-28T04:42:00.000Z,48.26
2022-07-28T04:44:00.000Z,49.29
2022-07-28T04:46:00.000Z,52.06
2022-07-28T04:48:00.000Z,54.11
2022-07-28T04:50:00.000Z,54.98
2022-07-28T04:52:00.000Z,54.9
2022-07-28T04:54:00.000Z,54.58
2022-07-28T04:56:00.000Z,54.9
2022-07-28T04:58:00.000Z,55.77
2022-07-28T05:00:00.000Z,55.37
2022-07-28T05:02:00.000Z,58.22
2022-07-28T05:04:00.000Z,59.96
2022-07-28T05:06:00.000Z,60.75
2022-07-28T05:08:00.000Z,63.59
2022-07-28T05:10:00.000Z,66.51
2022-07-28T05:12:00.000Z,68.41
2022-07-28T05:14:00.000Z,71.73
2022-07-28T05:16:00.000Z,74.89
2022-07-28T05:18:00.000Z,80.89
2022-07-28T05:20:00.000Z,84.45
2022-07-28T05:22:00.000Z,91.79
2022-07-28T05:24:00.000Z,96.3
2022-07-28T05:26:00.000Z,97.64
2022-07-28T05:28:00.000Z,101.99
2022-07-28T05:30:00.000Z,106.33
2022-07-28T05:32:00.000Z,111.07
2022-07-28T05:34:00.000Z,106.8
2022-07-28T05:36:00.000Z,117.08
2022-07-28T05:38:00.000Z,121.82
2022-07-28T05:40:00.000Z,119.76
2022-07-28T05:42:00.000Z,134.22
2022-07-28T05:44:00.000Z,128.37
2022-07-28T05:46:00.000Z,144.65
2022-07-28T05:48:00.000Z,148.04
2022-07-28T05:50:00.000Z,138.72
2022-07-28T05:52:00.000Z,121.74
2022-07-28T05:54:00.000Z,126.95
2022-07-28T05:56:00.000Z,126.71
2022-07-28T05:58:00.000Z,118.66
2022-07-28T06:00:00.000Z,123.4
2022-07-28T06:02:00.000Z,136.9
2022-07-28T06:04:00.000Z,155.47
2022-07-28T06:06:00.000Z,149.7
2022-07-28T06:08:00.000Z,155.86
2022-07-28T06:10:00.000Z,150.1
2022-07-28T06:12:00.000Z,152.86
2022-07-28T06:14:00.000Z,149.31
2022-07-28T06:16:00.000Z,158.16
2022-07-28T06:18:00.000Z,173.25
2022-07-28T06:20:00.000Z,182.65
2022-07-28T06:22:00.000Z,180.04
2022-07-28T06:24:00.000Z,158.08
2022-07-28T06:26:00.000Z,142.67
2022-07-28T06:28:00.000Z,126.63
2022-07-28T06:30:00.000Z,125.37
2022-07-28T06:32:00.000Z,131.06
2022-07-28T06:34:00.000Z,133.74
2022-07-28T06:36:00.000Z,157.44
2022-07-28T06:38:00.000Z,223.89
2022-07-28T06:40:00.000Z,328.64
2022-07-28T06:42:00.000Z,336.62
2022-07-28T06:44:00.000Z,349.1
2022-07-28T06:46:00.000Z,294.75
2022-07-28T06:48:00.000Z,243.24
2022-07-28T06:50:00.000Z,291.12
2022-07-28T06:52:00.000Z,336.7
2022-07-28T06:54:00.000Z,314.74
2022-07-28T06:56:00.000Z,313.63
2022-07-28T06:58:00.000Z,323.74
2022-07-28T07:00:00.000Z,284.4
2022-07-28T07:02:00.000Z,245.37
2022-07-28T07:04:00.000Z,229.26
2022-07-28T07:06:00.000Z,232.73
2022-07-28T07:08:00.000Z,258.09
2022-07-28T07:10:00.000Z,334.88
2022-07-28T07:12:00.000Z,307.15
2022-07-28T07:14:00.000Z,301.46
2022-07-28T07:16:00.000Z,274.92
2022-07-28T07:18:00.000Z,250.19
2022-07-28T07:20:00.000Z,238.42
2022-07-28T07:22:00.000Z,265.91
2022-07-28T07:24:00.000Z,322.24
2022-07-28T07:26:00.000Z,364.03
2022-07-28T07:28:00.000Z,417.91
2022-07-28T07:30:00.000Z,316.71
2022-07-28T07:32:00.000Z,294.67
2022-07-28T07:34:00.000Z,327.38
2022-07-28T07:36:00.000Z,334.33
2022-07-28T07:38:00.000Z,401.56
2022-07-28T07:40:00.000Z,378.65
2022-07-28T07:42:00.000Z,369.17
2022-07-28T07:44:00.000Z,336.7
2022-07-28T07:46:00.000Z,362.85
2022-07-28T07:48:00.000Z,354.47
2022-07-28T07:50:00.000Z,351.95
2022-07-28T07:52:00.000Z,330.93
2022-07-28T07:54:00.000Z,356.53
2022-07-28T07:56:00.000Z,334.49
2022-07-28T07:58:00.000Z,360.64
2022-07-28T08:00:00.000Z,370.83
2022-07-28T08:02:00.000Z,374.22
2022-07-28T08:04:00.000Z,404.25
2022-07-28T08:06:00.000Z,427.0
2022-07-28T08:08:00.000Z,450.38
2022-07-28T08:10:00.000Z,514.53
2022-07-28T08:12:00.000Z,543.92
2022-07-28T08:14:00.000Z,574.57
2022-07-28T08:16:00.000Z,588.16
2022-07-28T08:18:00.000Z,596.3
2022-07-28T08:20:00.000Z,596.22
2022-07-28T08:22:00.000Z,596.22
2022-07-28T08:24:00.000Z,594.24
2022-07-28T08:26:00.000Z,603.57
2022-07-28T08:28:00.000Z,570.86
2022-07-28T08:30:00.000Z,609.41
2022-07-28T08:32:00.000Z,619.68
2022-07-28T08:34:00.000Z,628.29
2022-07-28T08:36:00.000Z,632.01
2022-07-28T08:38:00.000Z,637.77
2022-07-28T08:40:00.000Z,642.43
2022-07-28T08:42:00.000Z,644.41
2022-07-28T08:44:00.000Z,644.65
2022-07-28T08:46:00.000Z,652.39
2022-07-28T08:48:00.000Z,665.03
2022-07-28T08:50:00.000Z,675.54
2022-07-28T08:52:00.000Z,684.94
2022-07-28T08:54:00.000Z,693.23
2022-07-28T08:56:00.000Z,701.29
2022-07-28T08:58:00.000Z,717.41
2022-07-28T09:00:00.000Z,733.21
2022-07-28T09:02:00.000Z,237.71
2022-07-28T09:04:00.000Z,212.03
2022-07-28T09:06:00.000Z,208.16
2022-07-28T09:08:00.000Z,226.18
2022-07-28T09:10:00.000Z,246.24
2022-07-28T09:12:00.000Z,244.03
2022-07-28T09:14:00.000Z,250.19
2022-07-28T09:16:00.000Z,420.36
2022-07-28T09:18:00.000Z,898.48
2022-07-28T09:20:00.000Z,872.96
2022-07-28T09:22:00.000Z,849.26
2022-07-28T09:24:00.000Z,383.94
2022-07-28T09:26:00.000Z,345.78
2022-07-28T09:28:00.000Z,732.73
2022-07-28T09:30:00.000Z,236.05
2022-07-28T09:32:00.000Z,322.72
2022-07-28T09:34:00.000Z,690.86
2022-07-28T09:36:00.000Z,678.06
2022-07-28T09:38:00.000Z,756.2
2022-07-28T09:40:00.000Z,779.66
2022-07-28T09:42:00.000Z,791.83
2022-07-28T09:44:00.000Z,769.15
2022-07-28T09:46:00.000Z,779.74
2022-07-28T09:48:00.000Z,793.09
2022-07-28T09:50:00.000Z,787.09
2022-07-28T09:52:00.000Z,783.37
2022-07-28T09:54:00.000Z,790.96
2022-07-28T09:56:00.000Z,788.75
2022-07-28T09:58:00.000Z,750.35
2022-07-28T10:00:00.000Z,742.13
2022-07-28T10:02:00.000Z,735.97
2022-07-28T10:04:00.000Z,774.92
2022-07-28T10:06:00.000Z,750.9
2022-07-28T10:08:00.000Z,741.74
2022-07-28T10:10:00.000Z,770.65
2022-07-28T10:12:00.000Z,797.12
2022-07-28T10:14:00.000Z,761.25
2022-07-28T10:16:00.000Z,193.23
2022-07-28T10:18:00.000Z,316.0
2022-07-28T10:20:00.000Z,598.75
2022-07-28T10:22:00.000Z,786.85
2022-07-28T10:24:00.000Z,772.39
2022-07-28T10:26:00.000Z,747.43
2022-07-28T10:28:00.000Z,781.32
2022-07-28T10:30:00.000Z,766.47
2022-07-28T10:32:00.000Z,793.72
2022-07-28T10:34:00.000Z,814.97
2022-07-28T10:36:00.000Z,812.37
2022-07-28T10:38:00.000Z,805.65
2022-07-28T10:40:00.000Z,784.01
2022-07-28T10:42:00.000Z,752.33
2022-07-28T10:44:00.000Z,762.52
2022-07-28T10:46:00.000Z,765.44
2022-07-28T10:48:00.000Z,798.86
2022-07-28T10:50:00.000Z,804.23
2022-07-28T10:52:00.000Z,808.89
2022-07-28T10:54:00.000Z,812.52
2022-07-28T10:56:00.000Z,814.34
2022-07-28T10:58:00.000Z,811.97
2022-07-28T11:00:00.000Z,810.23
2022-07-28T11:02:00.000Z,800.12
2022-07-28T11:04:00.000Z,748.61
2022-07-28T11:06:00.000Z,775.63
2022-07-28T11:08:00.000Z,789.38
2022-07-28T11:10:00.000Z,812.76
2022-07-28T11:12:00.000Z,821.93
2022-07-28T11:14:00.000Z,823.51
2022-07-28T11:16:00.000Z,819.87
2022-07-28T11:18:00.000Z,809.92
2022-07-28T11:20:00.000Z,820.98
2022-07-28T11:22:00.000Z,820.9
2022-07-28T11:24:00.000Z,618.89
2022-07-28T11:26:00.000Z,806.52
2022-07-28T11:28:00.000Z,804.31
2022-07-28T11:30:00.000Z,813.55
2022-07-28T11:32:00.000Z,823.98
2022-07-28T11:34:00.000Z,823.51
2022-07-28T11:36:00.000Z,823.98
2022-07-28T11:38:00.000Z,811.58
2022-07-28T11:40:00.000Z,806.99
2022-07-28T11:42:00.000Z,808.42
2022-07-28T11:44:00.000Z,792.22
2022-07-28T11:46:00.000Z,824.53
2022-07-28T11:48:00.000Z,789.06
2022-07-28T11:50:00.000Z,807.71
2022-07-28T11:52:00.000Z,804.62
2022-07-28T11:54:00.000Z,800.67
2022-07-28T11:56:00.000Z,788.27
2022-07-28T11:58:00.000Z,835.36
2022-07-28T12:00:00.000Z,798.38
2022-07-28T12:02:00.000Z,783.93
2022-07-28T12:04:00.000Z,742.77
2022-07-28T12:06:00.000Z,647.57
2022-07-28T12:08:00.000Z,736.13
2022-07-28T12:10:00.000Z,719.54
2022-07-28T12:12:00.000Z,763.7
2022-07-28T12:14:00.000Z,734.55
2022-07-28T12:16:00.000Z,632.01
2022-07-28T12:18:00.000Z,588.32
2022-07-28T12:20:00.000Z,579.71
2022-07-28T12:22:00.000Z,589.03
2022-07-28T12:24:00.000Z,633.19
2022-07-28T12:26:00.000Z,587.45
2022-07-28T12:28:00.000Z,758.96
2022-07-28T12:30:00.000Z,727.2
2022-07-28T12:32:00.000Z,774.68
2022-07-28T12:34:00.000Z,728.86
2022-07-28T12:36:00.000Z,749.8
2022-07-28T12:38:00.000Z,778.24
2022-07-28T12:40:00.000Z,757.86
2022-07-28T12:42:00.000Z,722.38
2022-07-28T12:44:00.000Z,711.56
2022-07-28T12:46:00.000Z,673.17
2022-07-28T12:48:00.000Z,607.99
2022-07-28T12:50:00.000Z,632.56
2022-07-28T12:52:00.000Z,818.53
2022-07-28T12:54:00.000Z,777.45
2022-07-28T12:56:00.000Z,780.13
2022-07-28T12:58:00.000Z,796.41
2022-07-28T13:00:00.000Z,767.81
2022-07-28T13:02:00.000Z,760.23
2022-07-28T13:04:00.000Z,760.3
2022-07-28T13:06:00.000Z,736.6
2022-07-28T13:08:00.000Z,738.11
2022-07-28T13:10:00.000Z,731.39
2022-07-28T13:12:00.000Z,642.99
2022-07-28T13:14:00.000Z,755.88
2022-07-28T13:16:00.000Z,743.32
2022-07-28T13:18:00.000Z,741.82
2022-07-28T13:20:00.000Z,719.7
2022-07-28T13:22:00.000Z,701.05
2022-07-28T13:24:00.000Z,691.34
2022-07-28T13:26:00.000Z,726.1
2022-07-28T13:28:00.000Z,707.85
2022-07-28T13:30:00.000Z,662.42
2022-07-28T13:32:00.000Z,685.73
2022-07-28T13:34:00.000Z,600.88
2022-07-28T13:36:00.000Z,640.38
2022-07-28T13:38:00.000Z,701.05
2022-07-28T13:40:00.000Z,705.24
2022-07-28T13:42:00.000Z,683.04
2022-07-28T13:44:00.000Z,701.21
2022-07-28T13:46:00.000Z,710.14
2022-07-28T13:48:00.000Z,707.14
2022-07-28T13:50:00.000Z,668.98
2022-07-28T13:52:00.000Z,673.25
2022-07-28T13:54:00.000Z,667.95
2022-07-28T13:56:00.000Z,631.3
2022-07-28T13:58:00.000Z,575.05
2022-07-28T14:00:00.000Z,598.43
2022-07-28T14:02:00.000Z,610.28
2022-07-28T14:04:00.000Z,633.19
2022-07-28T14:06:00.000Z,643.86
2022-07-28T14:08:00.000Z,645.36
2022-07-28T14:10:00.000Z,589.11
2022-07-28T14:12:00.000Z,594.95
2022-07-28T14:14:00.000Z,608.31
2022-07-28T14:16:00.000Z,628.06
2022-07-28T14:18:00.000Z,631.22
2022-07-28T14:20:00.000Z,509.4
2022-07-28T14:22:00.000Z,579.39
2022-07-28T14:24:00.000Z,628.37
2022-07-28T14:26:00.000Z,586.42
2022-07-28T14:28:00.000Z,599.46
2022-07-28T14:30:00.000Z,611.23
2022-07-28T14:32:00.000Z,580.34
2022-07-28T14:34:00.000Z,501.34
2022-07-28T14:36:00.000Z,537.36
2022-07-28T14:40:00.000Z,580.1
2022-07-28T14:42:00.000Z,519.67
2022-07-28T14:44:00.000Z,556.09
2022-07-28T14:46:00.000Z,560.35
2022-07-28T14:48:00.000Z,563.12
2022-07-28T14:50:00.000Z,551.98
2022-07-28T14:52:00.000Z,542.58
2022-07-28T14:54:00.000Z,543.37
2022-07-28T14:56:00.000Z,536.65
2022-07-28T14:58:00.000Z,524.33
2022-07-28T15:00:00.000Z,517.61
2022-07-28T15:02:00.000Z,513.27
2022-07-28T15:04:00.000Z,504.58
2022-07-28T15:06:00.000Z,491.07
2022-07-28T15:08:00.000Z,487.59
2022-07-28T15:10:00.000Z,487.12
2022-07-28T15:12:00.000Z,479.61
2022-07-28T15:14:00.000Z,480.17
2022-07-28T15:16:00.000Z,476.06
2022-07-28T15:18:00.000Z,467.21
2022-07-28T15:20:00.000Z,459.78
2022-07-28T15:22:00.000Z,451.8
2022-07-28T15:24:00.000Z,444.62
2022-07-28T15:26:00.000Z,443.67
2022-07-28T15:28:00.000Z,432.37
2022-07-28T15:30:00.000Z,424.94
2022-07-28T15:32:00.000Z,419.02
2022-07-28T15:34:00.000Z,399.03
2022-07-28T15:36:00.000Z,388.13
2022-07-28T15:38:00.000Z,383.07
2022-07-28T15:40:00.000Z,372.49
2022-07-28T15:42:00.000Z,373.91
2022-07-28T15:44:00.000Z,361.74
2022-07-28T15:46:00.000Z,373.83
2022-07-28T15:48:00.000Z,357.16
2022-07-28T15:50:00.000Z,340.18
2022-07-28T15:52:00.000Z,321.14
2022-07-28T15:54:00.000Z,298.46
2022-07-28T15:56:00.000Z,300.91
2022-07-28T15:58:00.000Z,303.83
2022-07-28T16:00:00.000Z,294.12
2022-07-28T16:02:00.000Z,296.72
2022-07-28T16:04:00.000Z,277.05
2022-07-28T16:06:00.000Z,286.77
2022-07-28T16:08:00.000Z,297.28
2022-07-28T16:10:00.000Z,280.61
2022-07-28T16:12:00.000Z,250.27
2022-07-28T16:14:00.000Z,215.35
2022-07-28T16:16:00.000Z,244.27
2022-07-28T16:18:00.000Z,260.15
2022-07-28T16:20:00.000Z,236.21
2022-07-28T16:22:00.000Z,235.74
2022-07-28T16:24:00.000Z,170.32
2022-07-28T16:26:00.000Z,124.11
2022-07-28T16:28:00.000Z,119.52
2022-07-28T16:30:00.000Z,115.81
2022-07-28T16:32:00.000Z,113.92
2022-07-28T16:34:00.000Z,111.94
2022-07-28T16:36:00.000Z,112.02
2022-07-28T16:38:00.000Z,112.97
2022-07-28T16:40:00.000Z,114.94
2022-07-28T16:42:00.000Z,116.05
2022-07-28T16:44:00.000Z,118.97
2022-07-28T16:46:00.000Z,136.11
2022-07-28T16:48:00.000Z,175.38
2022-07-28T16:50:00.000Z,171.82
2022-07-28T16:52:00.000Z,162.97
2022-07-28T16:54:00.000Z,144.09
2022-07-28T16:56:00.000Z,128.53
2022-07-28T16:58:00.000Z,122.76
2022-07-28T17:00:00.000Z,129.48
2022-07-28T17:02:00.000Z,134.93
2022-07-28T17:04:00.000Z,144.96
2022-07-28T17:06:00.000Z,147.81
2022-07-28T17:08:00.000Z,142.28
2022-07-28T17:10:00.000Z,126.48
2022-07-28T17:12:00.000Z,130.19
2022-07-28T17:14:00.000Z,135.88
2022-07-28T17:16:00.000Z,142.99
2022-07-28T17:18:00.000Z,136.27
2022-07-28T17:20:00.000Z,126.63
2022-07-28T17:22:00.000Z,118.34
2022-07-28T17:24:00.000Z,116.92
2022-07-28T17:28:00.000Z,115.97
2022-07-28T17:30:00.000Z,114.55
2022-07-28T17:32:00.000Z,114.15
2022-07-28T17:34:00.000Z,108.07
2022-07-28T17:36:00.000Z,101.75
2022-07-28T17:38:00.000Z,105.07
2022-07-28T17:40:00.000Z,86.03
2022-07-28T17:42:00.000Z,85.24
2022-07-28T17:44:00.000Z,88.32
2022-07-28T17:46:00.000Z,91.4
2022-07-28T17:48:00.000Z,90.29
2022-07-28T17:50:00.000Z,84.05
2022-07-28T17:52:00.000Z,82.55
2022-07-28T17:54:00.000Z,80.42
2022-07-28T17:56:00.000Z,78.05
2022-07-28T17:58:00.000Z,76.31
2022-07-28T18:00:00.000Z,73.94
2022-07-28T18:02:00.000Z,71.02
2022-07-28T18:04:00.000Z,72.6
2022-07-28T18:06:00.000Z,68.81
2022-07-28T18:08:00.000Z,65.25
2022-07-28T18:10:00.000Z,59.8
2022-07-28T18:12:00.000Z,55.77
2022-07-28T18:14:00.000Z,51.19
2022-07-28T18:16:00.000Z,48.34
2022-07-28T18:18:00.000Z,46.37
2022-07-28T18:20:00.000Z,45.5
2022-07-28T18:22:00.000Z,43.76
2022-07-28T18:24:00.000Z,42.26
2022-07-28T18:26:00.000Z,39.97
2022-07-28T18:28:00.000Z,37.68
2022-07-28T18:30:00.000Z,35.31
2022-07-28T18:32:00.000Z,33.57
2022-07-28T18:34:00.000Z,31.44
2022-07-28T18:36:00.000Z,29.38
2022-07-28T18:38:00.000Z,27.57
2022-07-28T18:40:00.000Z,25.43
2022-07-28T18:42:00.000Z,23.62
2022-07-28T18:44:00.000Z,22.04
2022-07-28T18:46:00.000Z,21.33
2022-07-28T18:48:00.000Z,19.82
2022-07-28T18:50:00.000Z,17.77
2022-07-28T18:52:00.000Z,16.03
2022-07-28T18:54:00.000Z,14.29
2022-07-28T18:56:00.000Z,12.79
2022-07-28T18:58:00.000Z,11.06
2022-07-28T19:00:00.000Z,9.63
2022-07-28T19:02:00.000Z,8.29
2022-07-28T19:04:00.000Z,7.26
2022-07-28T19:06:00.000Z,6.24
2022-07-28T19:08:00.000Z,5.45
2022-07-28T19:10:00.000Z,4.74
2022-07-28T19:12:00.000Z,4.42
2022-07-28T19:14:00.000Z,3.95
2022-07-28T19:16:00.000Z,3.47
2022-07-28T19:18:00.000Z,3.0
2022-07-28T19:20:00.000Z,2.68
2022-07-28T19:22:00.000Z,2.37
2022-07-28T19:24:00.000Z,2.05
2022-07-28T19:26:00.000Z,1.81
2022-07-28T19:28:00.000Z,1.58
2022-07-28T19:30:00.000Z,1.26
2022-07-28T19:32:00.000Z,1.1
2022-07-28T19:34:00.000Z,0.79
2022-07-28T19:36:00.000Z,0.71
2022-07-28T19:38:00.000Z,0.55
2022-07-28T19:40:00.000Z,0.39
2022-07-28T19:42:00.000Z,0.23
2022-07-28T19:44:00.000Z,0.0
2022-07-28T19:46:00.000Z,0.0
2022-07-28T19:48:00.000Z,0.0
2022-07-28T19:50:00.000Z,0.0
2022-07-28T19:52:00.000Z,0.0
2022-07-28T19:54:00.000Z,0.0
2022-07-28T19:56:00.000Z,0.0
2022-07-28T19:58:00.000Z,0.0
2022-07-28T20:00:00.000Z,0.0
2022-07-28T20:02:00.000Z,0.0
2022-07-28T20:04:00.000Z,0.0
2022-07-28T20:06:00.000Z,0.0
2022-07-28T20:08:00.000Z,0.0
2022-07-28T20:10:00.000Z,0.0
2022-07-28T20:12:00.000Z,0.0
2022-07-28T20:14:00.000Z,0.0
2022-07-28T20:16:00.000Z,0.0
2022-07-28T20:18:00.000Z,0.0
2022-07-28T20:20:00.000Z,0.0
2022-07-28T20:22:00.000Z,0.0
2022-07-28T20:24:00.000Z,0.0
2022-07-28T20:26:00.000Z,0.0
2022-07-28T20:28:00.000Z,0.0
2022-07-28T20:30:00.000Z,0.0
2022-07-28T20:32:00.000Z,0.0
2022-07-28T20:34:00.000Z,0.0
2022-07-28T20:36:00.000Z,0.0
2022-07-28T20:38:00.000Z,0.0
2022-07-28T20:40:00.000Z,0.0
2022-07-28T20:42:00.000Z,0.0
2022-07-28T20:44:00.000Z,0.0
2022-07-28T20:46:00.000Z,0.0
2022-07-28T20:48:00.000Z,0.0
2022-07-28T20:50:00.000Z,0.0
2022-07-28T20:52:00.000Z,0.0
2022-07-28T20:54:00.000Z,0.0
2022-07-28T20:56:00.000Z,0.0
2022-07-28T20:58:00.000Z,0.0
2022-07-28T21:00:00.000Z,0.0
2022-07-28T21:02:00.000Z,0.0
2022-07-28T21:04:00.000Z,0.0
2022-07-28T21:06:00.000Z,0.0
2022-07-28T21:08:00.000Z,0.0
2022-07-28T21:10:00.000Z,0.0
2022-07-28T21:12:00.000Z,0.0
2022-07-28T21:14:00.000Z,0.0
2022-07-28T21:16:00.000Z,0.0
2022-07-28T21:18:00.000Z,0.0
2022-07-28T21:20:00.000Z,0.0
2022-07-28T21:22:00.000Z,0.0
2022-07-28T21:24:00.000Z,0.0
2022-07-28T21:26:00.000Z,0.0
2022-07-28T21:28:00.000Z,0.0
2022-07-28T21:30:00.000Z,0.0
2022-07-28T21:32:00.000Z,0.0
2022-07-28T21:34:00.000Z,0.0
2022-07-28T21:36:00.000Z,0.0
2022-07-28T21:38:00.000Z,0.0
2022-07-28T21:40:00.000Z,0.0
2022-07-28T21:42:00.000Z,0.0
2022-07-28T21:44:00.000Z,0.0
2022-07-28T21:46:00.000Z,0.0
2022-07-28T21:48:00.000Z,0.0
2022-07-28T21:50:00.000Z,0.0
2022-07-28T21:52:00.000Z,0.0
2022-07-28T21:54:00.000Z,0.0
2022-07-28T21:56:00.000Z,0.0
2022-07-28T21:58:00.000Z,0.0
2022-07-28T22:00:00.000Z,0.0
2022-07-28T22:02:00.000Z,0.0
2022-07-28T22:04:00.000Z,0.0
2022-07-28T22:06:00.000Z,0.0
2022-07-28T22:08:00.000Z,0.0
2022-07-28T22:10:00.000Z,0.0
2022-07-28T22:12:00.000Z,0.0
2022-07-28T22:14:00.000Z,0.0
2022-07-28T22:16:00.000Z,0.0
2022-07-28T22:18:00.000Z,0.0
2022-07-28T22:20:00.000Z,0.0
2022-07-28T22:22:00.000Z,0.0
2022-07-28T22:24:00.000Z,0.0
2022-07-28T22:26:00.000Z,0.0
2022-07-28T22:28:00.000Z,0.0
2022-07-28T22:30:00.000Z,0.0
2022-07-28T22:32:00.000Z,0.0
2022-07-28T22:34:00.000Z,0.0
2022-07-28T22:36:00.000Z,0.0
2022-07-28T22:38:00.000Z,0.0
2022-07-28T22:40:00.000Z,0.0
2022-07-28T22:42:00.000Z,0.0
2022-07-28T22:44:00.000Z,0.0
2022-07-28T22:46:00.000Z,0.0
2022-07-28T22:48:00.000Z,0.0
2022-07-28T22:50:00.000Z,0.0
2022-07-28T22:52:00.000Z,0.0
2022-07-28T22:54:00.000Z,0.0
2022-07-28T22:58:00.000Z,0.0
2022-07-28T23:00:00.000Z,0.0
2022-07-28T23:02:00.000Z,0.0
2022-07-28T23:04:00.000Z,0.0
2022-07-28T23:06:00.000Z,0.0
2022-07-28T23:08:00.000Z,0.0
2022-07-28T23:10:00.000Z,0.0
2022-07-28T23:12:00.000Z,0.0
2022-07-28T23:14:00.000Z,0.0
2022-07-28T23:16:00.000Z,0.0
2022-07-28T23:18:00.000Z,0.0
2022-07-28T23:20:00.000Z,0.0
2022-07-28T23:22:00.000Z,0.0
2022-07-28T23:24:00.000Z,0.0
2022-07-28T23:26:00.000Z,0.0
2022-07-28T23:28:00.000Z,0.0
2022-07-28T23:30:00.000Z,0.0
2022-07-28T23:32:00.000Z,0.0
2022-07-28T23:34:00.000Z,0.0
2022-07-28T23:36:00.000Z,0.0
2022-07-28T23:38:00.000Z,0.0
2022-07-28T23:40:00.000Z,0.0
2022-07-28T23:42:00.000Z,0.0
2022-07-28T23:44:00.000Z,0.0
2022-07-28T23:46:00.000Z,0.0
2022-07-28T23:48:00.000Z,0.0
2022-07-28T23:50:00.000Z,0.0
2022-07-28T23:52:00.000Z,0.0
2022-07-28T23:54:00.000Z,0.0
2022-07-28T23:56:00.000Z,0.0
2022-07-28T23:58:00.000Z,0.0
